Terminal Aerodrome Forecast
Issued by NWS

Home | Current Version | Previous Version | Text Only | Print | Product List | Glossary On
Versions: 1 2 3 4 5 6 7 8 9 10 11 12 13 14 15 16 17
000
FTUS43 KDDC 241720
TAFGCK
TAF
KGCK 241720Z 2418/2518 05010KT P6SM SKC
     FM250300 04008KT P6SM BKN250 PROB30 2503/2506 4SM -TSRA
      OVC040CB
     FM250600 02005KT P6SM OVC040 PROB30 2506/2509 4SM -TSRA
      OVC025CB
     FM251400 02009KT P6SM OVC015
     FM251700 03010KT P6SM BKN020=

USA.gov is the U.S. government's official web portal to all federal, state and local government web resources and services.